sensor_id;sensor_type;location;lat;lon;timestamp;temperature;humidity
27747;DHT22;15138;51.012;4.692;2022-08-01T00:00:50;21.50;99.90
27747;DHT22;15138;51.012;4.692;2022-08-01T00:03:19;21.40;1.00
27747;DHT22;15138;51.012;4.692;2022-08-01T00:05:47;21.50;99.90
27747;DHT22;15138;51.012;4.692;2022-08-01T00:08:15;21.50;99.90
27747;DHT22;15138;51.012;4.692;2022-08-01T00:10:43;21.40;99.90
27747;DHT22;15138;51.012;4.692;2022-08-01T00:13:11;21.40;1.00
27747;DHT22;15138;51.012;4.692;2022-08-01T00:15:39;21.50;99.90
27747;DHT22;15138;51.012;4.692;2022-08-01T00:18:20;21.30;99.90
27747;DHT22;15138;51.012;4.692;2022-08-01T00:20:48;21.40;99.90
27747;DHT22;15138;51.012;4.692;2022-08-01T00:23:16;21.40;99.90
27747;DHT22;15138;51.012;4.692;2022-08-01T00:25:44;21.30;99.90
27747;DHT22;15138;51.012;4.692;2022-08-01T00:28:12;21.40;1.00
27747;DHT22;15138;51.012;4.692;2022-08-01T00:30:40;21.40;94.10
27747;DHT22;15138;51.012;4.692;2022-08-01T00:33:07;21.40;99.90
27747;DHT22;15138;51.012;4.692;2022-08-01T00:35:37;21.30;99.90
27747;DHT22;15138;51.012;4.692;2022-08-01T00:38:04;21.30;1.00
27747;DHT22;15138;51.012;4.692;2022-08-01T00:40:32;21.30;99.90
27747;DHT22;15138;51.012;4.692;2022-08-01T00:43:00;21.20;99.90
27747;DHT22;15138;51.012;4.692;2022-08-01T00:45:28;21.20;99.90
27747;DHT22;15138;51.012;4.692;2022-08-01T00:47:56;21.30;1.00
27747;DHT22;15138;51.012;4.692;2022-08-01T00:50:24;21.20;99.90
27747;DHT22;15138;51.012;4.692;2022-08-01T00:52:53;21.20;99.90
27747;DHT22;15138;51.012;4.692;2022-08-01T00:55:21;21.10;99.90
27747;DHT22;15138;51.012;4.692;2022-08-01T00:57:49;21.00;1.00
27747;DHT22;15138;51.012;4.692;2022-08-01T01:00:32;21.00;99.90
27747;DHT22;15138;51.012;4.692;2022-08-01T01:03:20;21.00;99.90
27747;DHT22;15138;51.012;4.692;2022-08-01T01:06:06;21.00;1.00
27747;DHT22;15138;51.012;4.692;2022-08-01T01:08:39;21.00;1.00
27747;DHT22;15138;51.012;4.692;2022-08-01T01:11:10;21.10;98.40
27747;DHT22;15138;51.012;4.692;2022-08-01T01:13:42;21.10;99.90
27747;DHT22;15138;51.012;4.692;2022-08-01T01:18:45;21.10;99.90
27747;DHT22;15138;51.012;4.692;2022-08-01T01:21:23;21.10;99.90
27747;DHT22;15138;51.012;4.692;2022-08-01T01:26:23;21.10;99.90
27747;DHT22;15138;51.012;4.692;2022-08-01T01:29:00;21.10;99.90
27747;DHT22;15138;51.012;4.692;2022-08-01T01:31:29;21.10;1.00
27747;DHT22;15138;51.012;4.692;2022-08-01T01:33:58;21.10;99.90
27747;DHT22;15138;51.012;4.692;2022-08-01T01:36:27;21.10;99.90
27747;DHT22;15138;51.012;4.692;2022-08-01T01:38:56;21.00;1.00
27747;DHT22;15138;51.012;4.692;2022-08-01T01:41:24;21.10;99.90
27747;DHT22;15138;51.012;4.692;2022-08-01T01:43:53;21.10;1.00
27747;DHT22;15138;51.012;4.692;2022-08-01T01:46:24;21.10;99.90
27747;DHT22;15138;51.012;4.692;2022-08-01T01:48:53;21.10;99.90
27747;DHT22;15138;51.012;4.692;2022-08-01T01:51:24;21.10;99.90
27747;DHT22;15138;51.012;4.692;2022-08-01T01:53:53;21.10;99.90
27747;DHT22;15138;51.012;4.692;2022-08-01T01:56:21;21.10;1.00
27747;DHT22;15138;51.012;4.692;2022-08-01T01:58:50;21.10;99.90
27747;DHT22;15138;51.012;4.692;2022-08-01T02:01:19;21.00;1.00
27747;DHT22;15138;51.012;4.692;2022-08-01T02:04:08;21.00;99.90
27747;DHT22;15138;51.012;4.692;2022-08-01T02:06:37;21.10;99.90
27747;DHT22;15138;51.012;4.692;2022-08-01T02:09:05;21.10;99.90
27747;DHT22;15138;51.012;4.692;2022-08-01T02:11:35;21.10;1.00
27747;DHT22;15138;51.012;4.692;2022-08-01T02:14:23;21.20;1.00
27747;DHT22;15138;51.012;4.692;2022-08-01T02:16:51;21.20;1.00
27747;DHT22;15138;51.012;4.692;2022-08-01T02:19:20;21.20;99.90
27747;DHT22;15138;51.012;4.692;2022-08-01T02:21:49;21.20;99.90
27747;DHT22;15138;51.012;4.692;2022-08-01T02:24:21;21.20;1.00
27747;DHT22;15138;51.012;4.692;2022-08-01T02:26:56;21.20;1.00
27747;DHT22;15138;51.012;4.692;2022-08-01T02:29:27;21.10;99.90
27747;DHT22;15138;51.012;4.692;2022-08-01T02:31:57;21.20;99.90
27747;DHT22;15138;51.012;4.692;2022-08-01T02:34:27;21.20;99.90
27747;DHT22;15138;51.012;4.692;2022-08-01T02:36:58;21.10;99.90
27747;DHT22;15138;51.012;4.692;2022-08-01T02:39:27;21.10;1.00
27747;DHT22;15138;51.012;4.692;2022-08-01T02:41:57;21.10;99.90
27747;DHT22;15138;51.012;4.692;2022-08-01T02:44:27;21.10;99.90
27747;DHT22;15138;51.012;4.692;2022-08-01T02:46:57;21.20;99.90
27747;DHT22;15138;51.012;4.692;2022-08-01T02:49:31;21.10;1.00
27747;DHT22;15138;51.012;4.692;2022-08-01T02:52:00;21.10;1.00
27747;DHT22;15138;51.012;4.692;2022-08-01T02:54:29;21.10;1.00
27747;DHT22;15138;51.012;4.692;2022-08-01T02:56:58;21.10;1.00
27747;DHT22;15138;51.012;4.692;2022-08-01T02:59:27;21.10;1.00
27747;DHT22;15138;51.012;4.692;2022-08-01T03:01:56;21.10;1.00
27747;DHT22;15138;51.012;4.692;2022-08-01T03:04:26;21.00;1.00
27747;DHT22;15138;51.012;4.692;2022-08-01T03:06:55;20.90;1.00
27747;DHT22;15138;51.012;4.692;2022-08-01T03:09:25;20.90;1.00
27747;DHT22;15138;51.012;4.692;2022-08-01T03:11:54;21.00;1.00
27747;DHT22;15138;51.012;4.692;2022-08-01T03:14:23;21.10;1.00
27747;DHT22;15138;51.012;4.692;2022-08-01T03:16:52;21.10;1.00
27747;DHT22;15138;51.012;4.692;2022-08-01T03:19:20;21.10;99.90
27747;DHT22;15138;51.012;4.692;2022-08-01T03:21:50;21.00;1.00
27747;DHT22;15138;51.012;4.692;2022-08-01T03:24:19;21.00;1.00
27747;DHT22;15138;51.012;4.692;2022-08-01T03:26:49;21.00;1.00
27747;DHT22;15138;51.012;4.692;2022-08-01T03:29:21;21.00;1.00
27747;DHT22;15138;51.012;4.692;2022-08-01T03:31:49;20.90;1.00
27747;DHT22;15138;51.012;4.692;2022-08-01T03:34:17;21.30;1.00
27747;DHT22;15138;51.012;4.692;2022-08-01T03:36:48;21.00;1.00
27747;DHT22;15138;51.012;4.692;2022-08-01T03:39:17;21.00;1.00
27747;DHT22;15138;51.012;4.692;2022-08-01T03:41:48;20.90;1.00
27747;DHT22;15138;51.012;4.692;2022-08-01T03:44:23;21.00;1.00
27747;DHT22;15138;51.012;4.692;2022-08-01T03:46:54;21.00;1.00
27747;DHT22;15138;51.012;4.692;2022-08-01T03:49:26;20.90;1.00
27747;DHT22;15138;51.012;4.692;2022-08-01T03:51:57;20.90;1.00
27747;DHT22;15138;51.012;4.692;2022-08-01T03:54:28;21.00;1.00
27747;DHT22;15138;51.012;4.692;2022-08-01T03:56:58;20.90;1.00
27747;DHT22;15138;51.012;4.692;2022-08-01T03:59:27;20.90;1.00
27747;DHT22;15138;51.012;4.692;2022-08-01T04:01:56;20.90;1.00
27747;DHT22;15138;51.012;4.692;2022-08-01T04:04:24;20.80;1.00
27747;DHT22;15138;51.012;4.692;2022-08-01T04:06:53;20.90;1.00
27747;DHT22;15138;51.012;4.692;2022-08-01T04:09:21;20.90;1.00
27747;DHT22;15138;51.012;4.692;2022-08-01T04:11:49;20.90;1.00
27747;DHT22;15138;51.012;4.692;2022-08-01T04:14:18;21.00;1.00
27747;DHT22;15138;51.012;4.692;2022-08-01T04:16:46;21.00;1.00
27747;DHT22;15138;51.012;4.692;2022-08-01T04:19:14;21.00;1.00
27747;DHT22;15138;51.012;4.692;2022-08-01T04:21:42;21.00;99.90
27747;DHT22;15138;51.012;4.692;2022-08-01T04:24:10;21.10;99.90
27747;DHT22;15138;51.012;4.692;2022-08-01T04:26:40;21.10;1.00
27747;DHT22;15138;51.012;4.692;2022-08-01T04:29:08;21.20;1.00
27747;DHT22;15138;51.012;4.692;2022-08-01T04:31:38;21.30;1.00
27747;DHT22;15138;51.012;4.692;2022-08-01T04:34:08;21.20;99.90
27747;DHT22;15138;51.012;4.692;2022-08-01T04:36:37;21.10;1.00
27747;DHT22;15138;51.012;4.692;2022-08-01T04:39:08;21.10;1.00
27747;DHT22;15138;51.012;4.692;2022-08-01T04:41:36;21.10;1.00
27747;DHT22;15138;51.012;4.692;2022-08-01T04:44:04;21.20;99.90
27747;DHT22;15138;51.012;4.692;2022-08-01T04:46:33;21.20;99.90
27747;DHT22;15138;51.012;4.692;2022-08-01T04:49:05;21.40;99.90
27747;DHT22;15138;51.012;4.692;2022-08-01T04:51:34;21.40;99.90
27747;DHT22;15138;51.012;4.692;2022-08-01T04:54:02;21.20;1.00
27747;DHT22;15138;51.012;4.692;2022-08-01T04:56:31;21.10;1.00
27747;DHT22;15138;51.012;4.692;2022-08-01T04:59:00;21.10;1.00
27747;DHT22;15138;51.012;4.692;2022-08-01T05:01:49;21.00;1.00
27747;DHT22;15138;51.012;4.692;2022-08-01T05:04:19;21.10;1.00
27747;DHT22;15138;51.012;4.692;2022-08-01T05:06:47;21.00;1.00
27747;DHT22;15138;51.012;4.692;2022-08-01T05:09:14;21.10;1.00
27747;DHT22;15138;51.012;4.692;2022-08-01T05:11:42;21.00;1.00
27747;DHT22;15138;51.012;4.692;2022-08-01T05:14:10;21.10;1.00
27747;DHT22;15138;51.012;4.692;2022-08-01T05:16:38;21.10;1.00
27747;DHT22;15138;51.012;4.692;2022-08-01T05:19:06;20.90;1.00
27747;DHT22;15138;51.012;4.692;2022-08-01T05:21:36;21.00;1.00
27747;DHT22;15138;51.012;4.692;2022-08-01T05:24:04;20.90;1.00
27747;DHT22;15138;51.012;4.692;2022-08-01T05:26:34;21.00;1.00
27747;DHT22;15138;51.012;4.692;2022-08-01T05:29:02;21.00;1.00
27747;DHT22;15138;51.012;4.692;2022-08-01T05:31:30;21.10;1.00
27747;DHT22;15138;51.012;4.692;2022-08-01T05:34:00;21.10;1.00
27747;DHT22;15138;51.012;4.692;2022-08-01T05:36:28;21.20;1.00
27747;DHT22;15138;51.012;4.692;2022-08-01T05:38:58;21.20;1.00
27747;DHT22;15138;51.012;4.692;2022-08-01T05:41:25;21.10;1.00
27747;DHT22;15138;51.012;4.692;2022-08-01T05:43:53;21.10;1.00
27747;DHT22;15138;51.012;4.692;2022-08-01T05:46:21;21.30;1.00
27747;DHT22;15138;51.012;4.692;2022-08-01T05:48:53;21.20;1.00
27747;DHT22;15138;51.012;4.692;2022-08-01T05:51:20;21.30;1.00
27747;DHT22;15138;51.012;4.692;2022-08-01T05:53:48;21.40;1.00
27747;DHT22;15138;51.012;4.692;2022-08-01T05:56:18;21.50;1.00
27747;DHT22;15138;51.012;4.692;2022-08-01T05:58:46;21.60;1.00
27747;DHT22;15138;51.012;4.692;2022-08-01T06:01:14;21.60;1.00
27747;DHT22;15138;51.012;4.692;2022-08-01T06:03:42;21.70;1.00
27747;DHT22;15138;51.012;4.692;2022-08-01T06:06:10;21.70;1.00
27747;DHT22;15138;51.012;4.692;2022-08-01T06:08:37;21.70;1.00
27747;DHT22;15138;51.012;4.692;2022-08-01T06:11:05;21.70;1.00
27747;DHT22;15138;51.012;4.692;2022-08-01T06:13:35;21.80;99.90
27747;DHT22;15138;51.012;4.692;2022-08-01T06:16:14;21.70;99.90
27747;DHT22;15138;51.012;4.692;2022-08-01T06:18:42;21.80;99.90
27747;DHT22;15138;51.012;4.692;2022-08-01T06:21:10;21.80;99.90
27747;DHT22;15138;51.012;4.692;2022-08-01T06:23:38;21.80;99.90
27747;DHT22;15138;51.012;4.692;2022-08-01T06:26:07;21.90;99.90
27747;DHT22;15138;51.012;4.692;2022-08-01T06:28:37;21.90;99.90
27747;DHT22;15138;51.012;4.692;2022-08-01T06:31:05;22.00;99.90
27747;DHT22;15138;51.012;4.692;2022-08-01T06:33:33;22.00;99.90
27747;DHT22;15138;51.012;4.692;2022-08-01T06:36:00;22.00;99.90
27747;DHT22;15138;51.012;4.692;2022-08-01T06:38:28;22.10;1.00
27747;DHT22;15138;51.012;4.692;2022-08-01T06:40:56;22.40;1.00
27747;DHT22;15138;51.012;4.692;2022-08-01T06:43:24;22.60;99.90
27747;DHT22;15138;51.012;4.692;2022-08-01T06:45:53;22.60;99.90
27747;DHT22;15138;51.012;4.692;2022-08-01T06:48:21;22.60;99.90
27747;DHT22;15138;51.012;4.692;2022-08-01T06:50:49;22.80;99.90
27747;DHT22;15138;51.012;4.692;2022-08-01T06:53:34;23.30;99.90
27747;DHT22;15138;51.012;4.692;2022-08-01T06:56:02;23.40;99.90
27747;DHT22;15138;51.012;4.692;2022-08-01T06:58:30;23.30;48.90
27747;DHT22;15138;51.012;4.692;2022-08-01T07:00:59;23.30;45.30
27747;DHT22;15138;51.012;4.692;2022-08-01T07:03:28;23.40;53.50
27747;DHT22;15138;51.012;4.692;2022-08-01T07:06:16;23.40;99.90
27747;DHT22;15138;51.012;4.692;2022-08-01T07:08:44;23.30;99.90
27747;DHT22;15138;51.012;4.692;2022-08-01T07:11:12;23.30;1.00
27747;DHT22;15138;51.012;4.692;2022-08-01T07:13:39;23.40;28.90
27747;DHT22;15138;51.012;4.692;2022-08-01T07:16:12;23.50;1.00
27747;DHT22;15138;51.012;4.692;2022-08-01T07:18:40;23.50;1.00
27747;DHT22;15138;51.012;4.692;2022-08-01T07:21:08;23.70;99.90
27747;DHT22;15138;51.012;4.692;2022-08-01T07:23:56;24.10;1.00
27747;DHT22;15138;51.012;4.692;2022-08-01T07:26:24;23.90;99.90
27747;DHT22;15138;51.012;4.692;2022-08-01T07:28:53;23.70;99.90
27747;DHT22;15138;51.012;4.692;2022-08-01T07:31:22;23.70;99.90
27747;DHT22;15138;51.012;4.692;2022-08-01T07:33:54;23.90;99.90
27747;DHT22;15138;51.012;4.692;2022-08-01T07:36:23;24.20;84.20
27747;DHT22;15138;51.012;4.692;2022-08-01T07:38:51;24.40;99.90
27747;DHT22;15138;51.012;4.692;2022-08-01T07:41:19;24.90;90.40
27747;DHT22;15138;51.012;4.692;2022-08-01T07:44:07;25.20;1.00
27747;DHT22;15138;51.012;4.692;2022-08-01T07:46:36;25.00;99.90
27747;DHT22;15138;51.012;4.692;2022-08-01T07:49:04;24.90;99.90
27747;DHT22;15138;51.012;4.692;2022-08-01T07:51:31;24.70;99.90
27747;DHT22;15138;51.012;4.692;2022-08-01T07:53:59;24.70;99.90
27747;DHT22;15138;51.012;4.692;2022-08-01T07:56:27;24.70;1.00
27747;DHT22;15138;51.012;4.692;2022-08-01T07:58:55;24.70;1.00
27747;DHT22;15138;51.012;4.692;2022-08-01T08:01:23;24.80;1.00
27747;DHT22;15138;51.012;4.692;2022-08-01T08:03:52;25.20;99.90
27747;DHT22;15138;51.012;4.692;2022-08-01T08:06:20;25.60;79.60
27747;DHT22;15138;51.012;4.692;2022-08-01T08:08:48;25.80;99.90
27747;DHT22;15138;51.012;4.692;2022-08-01T08:11:15;25.70;99.90
27747;DHT22;15138;51.012;4.692;2022-08-01T08:13:43;25.80;99.90
27747;DHT22;15138;51.012;4.692;2022-08-01T08:16:11;25.60;65.20
27747;DHT22;15138;51.012;4.692;2022-08-01T08:18:39;25.50;96.20
27747;DHT22;15138;51.012;4.692;2022-08-01T08:21:08;25.70;21.70
27747;DHT22;15138;51.012;4.692;2022-08-01T08:23:36;25.50;1.00
27747;DHT22;15138;51.012;4.692;2022-08-01T08:26:21;25.50;1.00
27747;DHT22;15138;51.012;4.692;2022-08-01T08:28:50;25.60;1.00
27747;DHT22;15138;51.012;4.692;2022-08-01T08:31:18;25.50;1.00
27747;DHT22;15138;51.012;4.692;2022-08-01T08:34:05;26.20;1.00
27747;DHT22;15138;51.012;4.692;2022-08-01T08:36:35;26.80;99.90
27747;DHT22;15138;51.012;4.692;2022-08-01T08:39:03;26.80;99.90
27747;DHT22;15138;51.012;4.692;2022-08-01T08:41:32;26.60;99.90
27747;DHT22;15138;51.012;4.692;2022-08-01T08:44:03;26.50;99.90
27747;DHT22;15138;51.012;4.692;2022-08-01T08:46:39;26.50;1.00
27747;DHT22;15138;51.012;4.692;2022-08-01T08:49:07;26.60;1.00
27747;DHT22;15138;51.012;4.692;2022-08-01T08:51:38;26.70;1.00
27747;DHT22;15138;51.012;4.692;2022-08-01T08:54:06;26.60;1.00
27747;DHT22;15138;51.012;4.692;2022-08-01T08:56:34;26.40;1.00
27747;DHT22;15138;51.012;4.692;2022-08-01T08:59:03;26.40;1.00
27747;DHT22;15138;51.012;4.692;2022-08-01T09:01:31;26.50;1.00
27747;DHT22;15138;51.012;4.692;2022-08-01T09:04:01;26.60;1.00
27747;DHT22;15138;51.012;4.692;2022-08-01T09:06:30;27.40;1.00
27747;DHT22;15138;51.012;4.692;2022-08-01T09:08:59;28.10;99.90
27747;DHT22;15138;51.012;4.692;2022-08-01T09:11:28;27.60;99.90
27747;DHT22;15138;51.012;4.692;2022-08-01T09:14:06;27.50;99.90
27747;DHT22;15138;51.012;4.692;2022-08-01T09:16:34;27.80;99.90
27747;DHT22;15138;51.012;4.692;2022-08-01T09:19:06;28.30;99.90
27747;DHT22;15138;51.012;4.692;2022-08-01T09:21:54;28.60;99.90
27747;DHT22;15138;51.012;4.692;2022-08-01T09:24:25;28.10;63.60
27747;DHT22;15138;51.012;4.692;2022-08-01T09:26:56;28.10;45.50
27747;DHT22;15138;51.012;4.692;2022-08-01T09:29:25;27.80;36.80
27747;DHT22;15138;51.012;4.692;2022-08-01T09:32:04;28.30;17.80
27747;DHT22;15138;51.012;4.692;2022-08-01T09:34:33;28.80;1.00
27747;DHT22;15138;51.012;4.692;2022-08-01T09:37:02;29.50;1.00
27747;DHT22;15138;51.012;4.692;2022-08-01T09:39:35;29.80;1.00
27747;DHT22;15138;51.012;4.692;2022-08-01T09:42:18;29.70;1.00
27747;DHT22;15138;51.012;4.692;2022-08-01T09:44:55;29.40;1.00
27747;DHT22;15138;51.012;4.692;2022-08-01T09:47:23;29.00;1.00
27747;DHT22;15138;51.012;4.692;2022-08-01T09:50:04;29.10;1.00
27747;DHT22;15138;51.012;4.692;2022-08-01T09:52:37;29.10;99.90
27747;DHT22;15138;51.012;4.692;2022-08-01T09:55:09;29.30;99.90
27747;DHT22;15138;51.012;4.692;2022-08-01T09:57:38;29.60;99.90
27747;DHT22;15138;51.012;4.692;2022-08-01T10:00:16;29.70;99.90
27747;DHT22;15138;51.012;4.692;2022-08-01T10:03:18;29.40;99.90
27747;DHT22;15138;51.012;4.692;2022-08-01T10:05:46;30.20;99.90
27747;DHT22;15138;51.012;4.692;2022-08-01T10:08:15;30.70;99.90
27747;DHT22;15138;51.012;4.692;2022-08-01T10:13:35;31.30;99.90
27747;DHT22;15138;51.012;4.692;2022-08-01T10:16:04;31.70;99.90
27747;DHT22;15138;51.012;4.692;2022-08-01T10:18:33;32.20;99.90
27747;DHT22;15138;51.012;4.692;2022-08-01T10:21:03;31.90;99.90
27747;DHT22;15138;51.012;4.692;2022-08-01T10:23:37;32.40;99.90
27747;DHT22;15138;51.012;4.692;2022-08-01T10:26:07;31.80;99.90
27747;DHT22;15138;51.012;4.692;2022-08-01T10:28:37;31.90;99.90
27747;DHT22;15138;51.012;4.692;2022-08-01T10:31:06;32.80;99.90
27747;DHT22;15138;51.012;4.692;2022-08-01T10:33:38;32.10;99.90
27747;DHT22;15138;51.012;4.692;2022-08-01T10:36:19;32.00;99.90
27747;DHT22;15138;51.012;4.692;2022-08-01T10:38:48;32.40;99.90
27747;DHT22;15138;51.012;4.692;2022-08-01T10:41:17;32.10;99.90
27747;DHT22;15138;51.012;4.692;2022-08-01T10:43:47;32.40;99.90
27747;DHT22;15138;51.012;4.692;2022-08-01T10:46:15;32.80;99.90
27747;DHT22;15138;51.012;4.692;2022-08-01T10:48:46;32.50;95.70
27747;DHT22;15138;51.012;4.692;2022-08-01T10:51:17;32.60;92.70
27747;DHT22;15138;51.012;4.692;2022-08-01T10:53:47;32.20;86.50
27747;DHT22;15138;51.012;4.692;2022-08-01T10:56:15;32.30;81.20
27747;DHT22;15138;51.012;4.692;2022-08-01T10:58:44;33.10;89.50
27747;DHT22;15138;51.012;4.692;2022-08-01T11:01:22;33.10;69.40
27747;DHT22;15138;51.012;4.692;2022-08-01T11:03:58;33.30;60.40
27747;DHT22;15138;51.012;4.692;2022-08-01T11:06:35;32.90;43.90
27747;DHT22;15138;51.012;4.692;2022-08-01T11:09:05;33.30;46.30
27747;DHT22;15138;51.012;4.692;2022-08-01T11:11:33;33.50;32.50
27747;DHT22;15138;51.012;4.692;2022-08-01T11:14:21;33.30;26.20
27747;DHT22;15138;51.012;4.692;2022-08-01T11:20:04;33.30;25.30
27747;DHT22;15138;51.012;4.692;2022-08-01T11:25:17;32.60;17.20
27747;DHT22;15138;51.012;4.692;2022-08-01T11:28:16;32.10;6.00
27747;DHT22;15138;51.012;4.692;2022-08-01T11:33:48;32.70;12.20
27747;DHT22;15138;51.012;4.692;2022-08-01T11:36:18;33.00;2.80
27747;DHT22;15138;51.012;4.692;2022-08-01T11:39:11;33.00;1.00
27747;DHT22;15138;51.012;4.692;2022-08-01T11:41:40;33.00;1.00
27747;DHT22;15138;51.012;4.692;2022-08-01T11:44:11;32.70;1.00
27747;DHT22;15138;51.012;4.692;2022-08-01T11:46:46;32.00;1.00
27747;DHT22;15138;51.012;4.692;2022-08-01T11:49:23;32.30;1.00
27747;DHT22;15138;51.012;4.692;2022-08-01T11:52:03;32.30;1.00
27747;DHT22;15138;51.012;4.692;2022-08-01T11:54:32;32.40;1.00
27747;DHT22;15138;51.012;4.692;2022-08-01T11:57:03;32.10;1.00
27747;DHT22;15138;51.012;4.692;2022-08-01T11:59:35;31.70;1.00
27747;DHT22;15138;51.012;4.692;2022-08-01T12:02:24;32.40;1.00
27747;DHT22;15138;51.012;4.692;2022-08-01T12:04:58;32.40;1.00
27747;DHT22;15138;51.012;4.692;2022-08-01T12:07:29;33.10;1.00
27747;DHT22;15138;51.012;4.692;2022-08-01T12:09:58;33.20;1.00
27747;DHT22;15138;51.012;4.692;2022-08-01T12:12:27;33.10;1.00
27747;DHT22;15138;51.012;4.692;2022-08-01T12:14:56;32.40;1.00
27747;DHT22;15138;51.012;4.692;2022-08-01T12:17:27;32.60;1.00
27747;DHT22;15138;51.012;4.692;2022-08-01T12:19:55;33.00;1.00
27747;DHT22;15138;51.012;4.692;2022-08-01T12:22:24;33.20;1.00
27747;DHT22;15138;51.012;4.692;2022-08-01T12:24:54;33.10;1.00
27747;DHT22;15138;51.012;4.692;2022-08-01T12:27:25;33.40;1.00
27747;DHT22;15138;51.012;4.692;2022-08-01T12:29:53;33.40;1.00
27747;DHT22;15138;51.012;4.692;2022-08-01T12:32:22;33.30;1.00
27747;DHT22;15138;51.012;4.692;2022-08-01T12:35:02;33.20;1.00
27747;DHT22;15138;51.012;4.692;2022-08-01T12:37:30;33.50;1.00
27747;DHT22;15138;51.012;4.692;2022-08-01T12:39:59;33.40;1.00
27747;DHT22;15138;51.012;4.692;2022-08-01T12:42:27;33.50;1.00
27747;DHT22;15138;51.012;4.692;2022-08-01T12:44:55;32.90;1.00
27747;DHT22;15138;51.012;4.692;2022-08-01T12:47:23;33.20;1.00
27747;DHT22;15138;51.012;4.692;2022-08-01T12:49:51;33.40;1.00
27747;DHT22;15138;51.012;4.692;2022-08-01T12:52:19;33.70;1.00
27747;DHT22;15138;51.012;4.692;2022-08-01T12:55:14;33.90;1.00
27747;DHT22;15138;51.012;4.692;2022-08-01T12:57:44;34.10;1.00
27747;DHT22;15138;51.012;4.692;2022-08-01T13:00:19;34.20;1.00
27747;DHT22;15138;51.012;4.692;2022-08-01T13:02:48;34.00;1.00
27747;DHT22;15138;51.012;4.692;2022-08-01T13:05:16;34.20;1.00
27747;DHT22;15138;51.012;4.692;2022-08-01T13:07:48;34.00;1.00
27747;DHT22;15138;51.012;4.692;2022-08-01T13:10:26;33.80;1.00
27747;DHT22;15138;51.012;4.692;2022-08-01T13:12:56;33.70;1.00
27747;DHT22;15138;51.012;4.692;2022-08-01T13:15:25;33.90;1.00
27747;DHT22;15138;51.012;4.692;2022-08-01T13:17:53;33.60;1.00
27747;DHT22;15138;51.012;4.692;2022-08-01T13:20:25;34.00;1.00
27747;DHT22;15138;51.012;4.692;2022-08-01T13:22:53;33.70;1.00
27747;DHT22;15138;51.012;4.692;2022-08-01T13:25:21;34.10;1.00
27747;DHT22;15138;51.012;4.692;2022-08-01T13:30:37;34.30;1.00
27747;DHT22;15138;51.012;4.692;2022-08-01T13:33:04;34.30;1.00
27747;DHT22;15138;51.012;4.692;2022-08-01T13:35:32;33.80;1.00
27747;DHT22;15138;51.012;4.692;2022-08-01T13:38:00;34.00;1.00
27747;DHT22;15138;51.012;4.692;2022-08-01T13:40:28;34.00;1.00
27747;DHT22;15138;51.012;4.692;2022-08-01T13:42:56;34.30;1.00
27747;DHT22;15138;51.012;4.692;2022-08-01T13:45:24;33.90;1.00
27747;DHT22;15138;51.012;4.692;2022-08-01T13:47:53;33.60;1.00
27747;DHT22;15138;51.012;4.692;2022-08-01T13:50:38;33.70;1.00
27747;DHT22;15138;51.012;4.692;2022-08-01T13:53:06;33.60;1.00
27747;DHT22;15138;51.012;4.692;2022-08-01T13:55:35;33.40;1.00
27747;DHT22;15138;51.012;4.692;2022-08-01T13:58:04;33.80;1.00
27747;DHT22;15138;51.012;4.692;2022-08-01T14:00:33;34.10;1.00
27747;DHT22;15138;51.012;4.692;2022-08-01T14:03:02;34.40;1.00
27747;DHT22;15138;51.012;4.692;2022-08-01T14:05:30;33.90;1.00
27747;DHT22;15138;51.012;4.692;2022-08-01T14:07:58;33.80;1.00
27747;DHT22;15138;51.012;4.692;2022-08-01T14:10:26;34.20;1.00
27747;DHT22;15138;51.012;4.692;2022-08-01T14:12:56;34.30;1.00
27747;DHT22;15138;51.012;4.692;2022-08-01T14:15:24;34.00;1.00
27747;DHT22;15138;51.012;4.692;2022-08-01T14:18:06;33.60;1.00
27747;DHT22;15138;51.012;4.692;2022-08-01T14:20:35;33.30;1.00
27747;DHT22;15138;51.012;4.692;2022-08-01T14:23:03;33.00;1.00
27747;DHT22;15138;51.012;4.692;2022-08-01T14:25:35;33.40;1.00
27747;DHT22;15138;51.012;4.692;2022-08-01T14:28:23;33.60;1.00
27747;DHT22;15138;51.012;4.692;2022-08-01T14:30:51;33.60;1.00
27747;DHT22;15138;51.012;4.692;2022-08-01T14:33:23;33.80;1.00
27747;DHT22;15138;51.012;4.692;2022-08-01T14:35:51;33.20;1.00
27747;DHT22;15138;51.012;4.692;2022-08-01T14:38:31;32.90;1.00
27747;DHT22;15138;51.012;4.692;2022-08-01T14:41:00;32.70;1.00
27747;DHT22;15138;51.012;4.692;2022-08-01T14:43:29;32.90;1.00
27747;DHT22;15138;51.012;4.692;2022-08-01T14:45:59;33.10;1.00
27747;DHT22;15138;51.012;4.692;2022-08-01T14:48:30;33.50;1.00
27747;DHT22;15138;51.012;4.692;2022-08-01T14:50:58;33.00;1.00
27747;DHT22;15138;51.012;4.692;2022-08-01T14:53:29;33.20;1.00
27747;DHT22;15138;51.012;4.692;2022-08-01T14:56:01;33.00;1.00
27747;DHT22;15138;51.012;4.692;2022-08-01T14:58:29;33.20;1.00
27747;DHT22;15138;51.012;4.692;2022-08-01T15:00:57;33.00;1.00
27747;DHT22;15138;51.012;4.692;2022-08-01T15:03:25;33.10;1.00
27747;DHT22;15138;51.012;4.692;2022-08-01T15:05:54;33.20;1.00
27747;DHT22;15138;51.012;4.692;2022-08-01T15:08:22;33.30;1.00
27747;DHT22;15138;51.012;4.692;2022-08-01T15:10:50;33.20;1.00
27747;DHT22;15138;51.012;4.692;2022-08-01T15:13:18;33.30;1.00
27747;DHT22;15138;51.012;4.692;2022-08-01T15:15:46;33.20;1.00
27747;DHT22;15138;51.012;4.692;2022-08-01T15:18:14;33.00;1.00
27747;DHT22;15138;51.012;4.692;2022-08-01T15:20:42;33.20;1.00
27747;DHT22;15138;51.012;4.692;2022-08-01T15:23:11;33.10;1.00
27747;DHT22;15138;51.012;4.692;2022-08-01T15:25:40;33.10;1.00
27747;DHT22;15138;51.012;4.692;2022-08-01T15:28:08;33.00;1.00
27747;DHT22;15138;51.012;4.692;2022-08-01T15:30:36;32.80;1.00
27747;DHT22;15138;51.012;4.692;2022-08-01T15:33:04;32.70;1.00
27747;DHT22;15138;51.012;4.692;2022-08-01T15:35:32;32.90;1.00
27747;DHT22;15138;51.012;4.692;2022-08-01T15:37:59;33.00;1.00
27747;DHT22;15138;51.012;4.692;2022-08-01T15:40:29;32.90;1.00
27747;DHT22;15138;51.012;4.692;2022-08-01T15:43:01;32.70;1.00
27747;DHT22;15138;51.012;4.692;2022-08-01T15:45:29;32.20;1.00
27747;DHT22;15138;51.012;4.692;2022-08-01T15:48:14;31.90;1.00
27747;DHT22;15138;51.012;4.692;2022-08-01T15:50:42;31.90;1.00
27747;DHT22;15138;51.012;4.692;2022-08-01T15:53:10;32.00;1.00
27747;DHT22;15138;51.012;4.692;2022-08-01T15:55:39;32.10;1.00
27747;DHT22;15138;51.012;4.692;2022-08-01T15:58:14;31.90;1.00
27747;DHT22;15138;51.012;4.692;2022-08-01T16:00:42;31.90;1.00
27747;DHT22;15138;51.012;4.692;2022-08-01T16:03:10;31.90;1.00
27747;DHT22;15138;51.012;4.692;2022-08-01T16:05:38;32.10;1.00
27747;DHT22;15138;51.012;4.692;2022-08-01T16:08:09;32.00;1.00
27747;DHT22;15138;51.012;4.692;2022-08-01T16:10:39;32.10;1.00
27747;DHT22;15138;51.012;4.692;2022-08-01T16:13:07;32.30;1.00
27747;DHT22;15138;51.012;4.692;2022-08-01T16:15:35;31.90;1.00
27747;DHT22;15138;51.012;4.692;2022-08-01T16:18:03;31.70;1.00
27747;DHT22;15138;51.012;4.692;2022-08-01T16:20:32;31.80;1.00